Raymond, SD (57258)

10:12 PM CST on November 25, 2014 (GMT -0600)
Clark County Courthouse | Change Station
CLOSE
Current Station
Personal Weather Station
Location: Clark, SD
Elevation: 1839 ft
Nearby Weather Stations
Active Advisory: Winter Weather Advisory

Elev 1839 ft 44.88 °N, 97.73 °W | Updated 1 minute ago

Snow
Snow
29.2 °F
Feels Like 29 °F
N
1.0
Wind Variable Wind from SE
Gusts 1.0 mph

Today
High -- | Low -- °F
--% Chance of Precip.
Yesterday
High -- | Low -- °F
Precip. -- in
7:42 AM 4:54 PM
Waxing Crescent, 16% visible
Pressure 29.88 in
Visibility 2.5 miles
Clouds Mostly Cloudy 2900 ft
Overcast 3700 ft
Windchill 29 °F
Dew Point 27 °F
Humidity 91%
Rainfall 0.00 in
Snow Depth Not available.
UV 0 out of 12
Pollen .10 out of 12
Air Quality Not available.
Flu Activity Not available.
METAR KATY 260353Z AUTO 13007KT 2 1/2SM -SN BR BKN029 OVC037 M02/M04 A2980 RMK AO2 SNB0258 SLP116 P0000 T10171039

More Conditions Fewer Conditions

Pressure 29.88 in
Visibility 2.5 miles
Clouds Mostly Cloudy 2900 ft
Overcast 3700 ft
Windchill 29 °F
Dew Point 27 °F
Humidity 91%
Rainfall 0.00 in
Snow Depth Not available.
UV 0 out of 12
Pollen .10 out of 12
Air Quality Not available.
Flu Activity Not available.
METAR KATY 260353Z AUTO 13007KT 2 1/2SM -SN BR BKN029 OVC037 M02/M04 A2980 RMK AO2 SNB0258 SLP116 P0000 T10171039

More Conditions Fewer Conditions

10-Day Weather Forecast

Almanac

Astronomy

Nov. 25, 2014 Rise Set
Actual Time
Civil Twilight
Nautical Twilight
Astronomical Twilight
Moon
Length of Visible Light
Length of Day
Tomorrow will be .
, % of the Moon is Illuminated

Today's Extremes

State Highs State Lows

Community

WunderPhotos

Upload Photos

1,773,679 photos uploaded!

WunderBlogs® & News

Nearby

Air Quality

  Air Quality AQ Index Pollutant
Not available.

Snow Depth

Station Depth Elevation

Earthquake Activity

City Distance Mag. Time & Date
Minimum magnitude displayed is 2.5.

Coastal Water Temperatures

Place Temperature

Nearby Weather Stations